Ashton-in-Makerfield, United Kingdom
Current Conditions -  °F | °C
As of 10:50 PM on Saturday 25 Oct 2014 (Local Time) from EGGP Reporting Station
Scattered Clouds Scattered Clouds  
Wind Chill: 55°   Ceiling: Unl
Heat Index: 55°   Visibility: 6mi
Dew Point: 46°   Wind: 13mph
Humidity: 72%   Direction: 210°SSW
Pressure: 29.97"   Gusts: NA
Location:  53.48°N, 2.64°W
Report Text: EGGP 252150Z 21011KT 9999 SCT040 13/08 Q1015
Loading
Personal Weather Stations






























Interactive Weather Map
Tropical Storm Tracking
New forecast layout! Learn more

10-Day Weather Forecast

Advertisements
Track Severe Weather on mobile